sensor_id;sensor_type;location;lat;lon;timestamp;pressure;altitude;pressure_sealevel;temperature;humidity
65054;BME280;51639;47.828;35.038;2023-05-24T00:12:02;99916.09;;;18.65;100.00
65054;BME280;51639;47.828;35.038;2023-05-24T00:27:05;99922.56;;;18.62;100.00
65054;BME280;51639;47.828;35.038;2023-05-24T00:42:07;99905.00;;;18.45;100.00
65054;BME280;51639;47.828;35.038;2023-05-24T00:57:09;99904.84;;;18.34;100.00
65054;BME280;51639;47.828;35.038;2023-05-24T01:12:45;99897.09;;;18.32;100.00
65054;BME280;51639;47.828;35.038;2023-05-24T01:27:49;99887.56;;;18.48;100.00
65054;BME280;51639;47.828;35.038;2023-05-24T01:43:04;99879.41;;;18.19;100.00
65054;BME280;51639;47.828;35.038;2023-05-24T01:58:10;99890.19;;;18.08;100.00
65054;BME280;51639;47.828;35.038;2023-05-24T02:13:14;99906.09;;;18.03;100.00
65054;BME280;51639;47.828;35.038;2023-05-24T02:28:20;99920.78;;;18.00;100.00
65054;BME280;51639;47.828;35.038;2023-05-24T02:43:22;99931.84;;;18.21;100.00
65054;BME280;51639;47.828;35.038;2023-05-24T02:58:24;99926.56;;;18.32;100.00
65054;BME280;51639;47.828;35.038;2023-05-24T03:13:29;99929.00;;;18.59;100.00
65054;BME280;51639;47.828;35.038;2023-05-24T03:28:32;99936.63;;;18.85;100.00
65054;BME280;51639;47.828;35.038;2023-05-24T03:43:34;99944.47;;;18.92;100.00
65054;BME280;51639;47.828;35.038;2023-05-24T03:58:36;99939.13;;;19.43;100.00
65054;BME280;51639;47.828;35.038;2023-05-24T04:13:38;99929.34;;;19.63;100.00
65054;BME280;51639;47.828;35.038;2023-05-24T04:28:40;99933.09;;;19.60;100.00
65054;BME280;51639;47.828;35.038;2023-05-24T04:43:42;99941.03;;;20.04;100.00
65054;BME280;51639;47.828;35.038;2023-05-24T04:58:46;99948.69;;;20.46;100.00
65054;BME280;51639;47.828;35.038;2023-05-24T05:13:48;99967.28;;;21.25;100.00
65054;BME280;51639;47.828;35.038;2023-05-24T05:28:50;99968.53;;;22.11;100.00
65054;BME280;51639;47.828;35.038;2023-05-24T05:43:52;99981.91;;;22.41;100.00
65054;BME280;51639;47.828;35.038;2023-05-24T05:58:54;99992.59;;;23.28;100.00
65054;BME280;51639;47.828;35.038;2023-05-24T06:13:56;99988.13;;;23.03;100.00
65054;BME280;51639;47.828;35.038;2023-05-24T06:28:58;99984.34;;;23.75;100.00
65054;BME280;51639;47.828;35.038;2023-05-24T06:44:00;99975.19;;;24.32;100.00
65054;BME280;51639;47.828;35.038;2023-05-24T06:59:02;99975.31;;;25.67;100.00
65054;BME280;51639;47.828;35.038;2023-05-24T07:14:04;99969.97;;;26.39;100.00
65054;BME280;51639;47.828;35.038;2023-05-24T07:29:06;99984.19;;;26.94;100.00
65054;BME280;51639;47.828;35.038;2023-05-24T07:44:09;99981.56;;;27.14;100.00
65054;BME280;51639;47.828;35.038;2023-05-24T07:59:13;99979.31;;;25.29;100.00
65054;BME280;51639;47.828;35.038;2023-05-24T08:14:16;99979.53;;;27.02;100.00
65054;BME280;51639;47.828;35.038;2023-05-24T08:29:17;99945.75;;;27.79;100.00
65054;BME280;51639;47.828;35.038;2023-05-24T08:44:20;99952.25;;;27.47;100.00
65054;BME280;51639;47.828;35.038;2023-05-24T08:59:24;99952.91;;;28.22;100.00
65054;BME280;51639;47.828;35.038;2023-05-24T09:14:26;99946.16;;;28.38;100.00
65054;BME280;51639;47.828;35.038;2023-05-24T09:29:28;99952.34;;;28.44;100.00
65054;BME280;51639;47.828;35.038;2023-05-24T09:44:30;99981.28;;;27.78;100.00
65054;BME280;51639;47.828;35.038;2023-05-24T09:59:32;99973.91;;;28.64;100.00
65054;BME280;51639;47.828;35.038;2023-05-24T10:14:37;99976.50;;;26.09;100.00
65054;BME280;51639;47.828;35.038;2023-05-24T10:44:47;100002.53;;;24.11;100.00
65054;BME280;51639;47.828;35.038;2023-05-24T10:59:49;99996.47;;;24.54;100.00
65054;BME280;51639;47.828;35.038;2023-05-24T11:14:52;100003.69;;;24.63;100.00
65054;BME280;51639;47.828;35.038;2023-05-24T11:29:56;99999.31;;;24.07;100.00
65054;BME280;51639;47.828;35.038;2023-05-24T11:44:59;99983.31;;;24.19;100.00
65054;BME280;51639;47.828;35.038;2023-05-24T12:00:01;99960.09;;;24.28;100.00
65054;BME280;51639;47.828;35.038;2023-05-24T12:15:06;99953.56;;;24.20;100.00
65054;BME280;51639;47.828;35.038;2023-05-24T12:30:09;99939.66;;;24.31;100.00
65054;BME280;51639;47.828;35.038;2023-05-24T12:45:19;99939.81;;;24.38;100.00
65054;BME280;51639;47.828;35.038;2023-05-24T13:00:27;99946.69;;;24.62;100.00
65054;BME280;51639;47.828;35.038;2023-05-24T13:15:29;99937.47;;;24.48;100.00
65054;BME280;51639;47.828;35.038;2023-05-24T13:30:32;99960.28;;;24.00;100.00
65054;BME280;51639;47.828;35.038;2023-05-24T13:45:35;99942.94;;;23.88;100.00
65054;BME280;51639;47.828;35.038;2023-05-24T14:00:40;99936.94;;;23.84;100.00
65054;BME280;51639;47.828;35.038;2023-05-24T14:15:43;99922.69;;;24.04;100.00
65054;BME280;51639;47.828;35.038;2023-05-24T14:30:50;99919.84;;;24.10;100.00
65054;BME280;51639;47.828;35.038;2023-05-24T14:45:52;99928.56;;;24.31;100.00
65054;BME280;51639;47.828;35.038;2023-05-24T15:00:54;99931.47;;;24.44;100.00
65054;BME280;51639;47.828;35.038;2023-05-24T15:15:56;99923.69;;;24.37;100.00
65054;BME280;51639;47.828;35.038;2023-05-24T15:31:04;99915.56;;;24.44;100.00
65054;BME280;51639;47.828;35.038;2023-05-24T15:46:08;99915.16;;;24.59;100.00
65054;BME280;51639;47.828;35.038;2023-05-24T16:01:10;99909.75;;;24.48;100.00
65054;BME280;51639;47.828;35.038;2023-05-24T16:16:12;99920.16;;;24.36;100.00
65054;BME280;51639;47.828;35.038;2023-05-24T16:31:17;99916.13;;;24.07;100.00
65054;BME280;51639;47.828;35.038;2023-05-24T16:46:19;99914.81;;;23.78;100.00
65054;BME280;51639;47.828;35.038;2023-05-24T17:01:21;99932.81;;;23.61;100.00
65054;BME280;51639;47.828;35.038;2023-05-24T17:16:23;99969.44;;;23.26;100.00
65054;BME280;51639;47.828;35.038;2023-05-24T17:31:28;99979.13;;;22.80;100.00
65054;BME280;51639;47.828;35.038;2023-05-24T17:46:31;99996.22;;;22.34;100.00
65054;BME280;51639;47.828;35.038;2023-05-24T18:01:37;100025.09;;;22.10;100.00
65054;BME280;51639;47.828;35.038;2023-05-24T18:16:39;100039.91;;;22.13;100.00
65054;BME280;51639;47.828;35.038;2023-05-24T18:31:41;100039.28;;;21.81;100.00
65054;BME280;51639;47.828;35.038;2023-05-24T18:46:43;100030.56;;;21.40;100.00
65054;BME280;51639;47.828;35.038;2023-05-24T19:01:46;100053.00;;;21.16;100.00
65054;BME280;51639;47.828;35.038;2023-05-24T19:16:48;100081.53;;;21.07;100.00
65054;BME280;51639;47.828;35.038;2023-05-24T19:31:52;100073.22;;;20.70;100.00
65054;BME280;51639;47.828;35.038;2023-05-24T19:46:54;100053.88;;;20.39;100.00
65054;BME280;51639;47.828;35.038;2023-05-24T20:01:56;100072.78;;;20.26;100.00
65054;BME280;51639;47.828;35.038;2023-05-24T20:16:59;100068.13;;;19.91;100.00
65054;BME280;51639;47.828;35.038;2023-05-24T20:47:47;100046.78;;;19.66;100.00
65054;BME280;51639;47.828;35.038;2023-05-24T21:02:49;100037.47;;;19.43;100.00
65054;BME280;51639;47.828;35.038;2023-05-24T21:17:52;100024.25;;;19.27;100.00
65054;BME280;51639;47.828;35.038;2023-05-24T21:32:54;100029.22;;;19.08;100.00
65054;BME280;51639;47.828;35.038;2023-05-24T21:47:56;100032.41;;;19.21;100.00
65054;BME280;51639;47.828;35.038;2023-05-24T22:02:58;100019.31;;;19.16;100.00
65054;BME280;51639;47.828;35.038;2023-05-24T22:18:01;100012.09;;;19.19;100.00
65054;BME280;51639;47.828;35.038;2023-05-24T22:33:03;100013.28;;;19.12;100.00
65054;BME280;51639;47.828;35.038;2023-05-24T22:48:05;100042.13;;;19.02;100.00
65054;BME280;51639;47.828;35.038;2023-05-24T23:03:08;100052.00;;;18.94;100.00
65054;BME280;51639;47.828;35.038;2023-05-24T23:18:10;100045.66;;;18.58;100.00
65054;BME280;51639;47.828;35.038;2023-05-24T23:33:16;100060.53;;;18.37;100.00
65054;BME280;51639;47.828;35.038;2023-05-24T23:48:19;100080.84;;;18.54;100.00
